Time;durP1;ratioP1;P1;durP2;ratioP2;P2;SDS_P1;SDS_P2;PMS_P1;PMS_P2;Temp;Humidity;BMP_temperature;BMP_pressure;BME280_temperature;BME280_humidity;BME280_pressure;Samples;Min_cycle;Max_cycle;Signal;HPM_P1;HPM_P2
2023/10/06 00:07:24;;;;;;;11.37;4.43;;;12.20;98.40;;;;;;21088706;28;20249;-63
2023/10/06 00:17:33;;;;;;;9.80;4.00;;;12.20;98.70;;;;;;21088090;28;20294;-63
2023/10/06 00:27:38;;;;;;;7.23;4.53;;;12.10;98.60;;;;;;21087277;28;20234;-62
2023/10/06 00:37:40;;;;;;;9.43;4.20;;;12.10;98.80;;;;;;21086343;28;20301;-62
2023/10/06 00:47:42;;;;;;;7.20;4.33;;;11.90;98.60;;;;;;21085876;28;20657;-63
2023/10/06 00:57:52;;;;;;;8.97;4.53;;;12.00;98.80;;;;;;21084578;28;20238;-62
2023/10/06 01:07:54;;;;;;;9.43;4.60;;;11.90;98.40;;;;;;21084504;28;20217;-63
2023/10/06 01:17:57;;;;;;;7.93;4.43;;;11.90;98.70;;;;;;21083105;28;20613;-64
2023/10/06 01:28:03;;;;;;;7.40;3.90;;;11.90;98.80;;;;;;21082559;28;20217;-63
2023/10/06 01:38:05;;;;;;;7.20;4.10;;;11.70;98.30;;;;;;21081056;28;20542;-63
2023/10/06 01:58:15;;;;;;;11.57;4.40;;;11.70;98.40;;;;;;21080959;28;20575;-63
2023/10/06 02:08:23;;;;;;;6.60;3.90;;;11.60;98.40;;;;;;21080108;28;20296;-63
2023/10/06 02:18:38;;;;;;;7.60;3.70;;;11.50;98.50;;;;;;21079135;28;20230;-63
2023/10/06 02:28:43;;;;;;;8.20;3.57;;;11.30;98.20;;;;;;21078766;28;20660;-63
2023/10/06 02:38:46;;;;;;;8.60;4.20;;;11.40;98.40;;;;;;21078464;28;20218;-64
2023/10/06 02:48:50;;;;;;;9.90;4.30;;;11.30;98.20;;;;;;21077844;28;20237;-64
2023/10/06 02:58:52;;;;;;;7.83;4.03;;;11.20;98.20;;;;;;21087037;28;20334;-63
2023/10/06 03:08:54;;;;;;;8.90;4.43;;;11.00;98.10;;;;;;21094314;28;20259;-62
2023/10/06 03:18:57;;;;;;;7.33;4.30;;;11.00;98.20;;;;;;21092825;28;20320;-63
2023/10/06 03:29:02;;;;;;;7.23;4.60;;;11.10;98.40;;;;;;21092959;28;20224;-63
2023/10/06 03:39:10;;;;;;;10.77;5.47;;;11.10;98.40;;;;;;21092041;28;20275;-63
2023/10/06 03:49:13;;;;;;;7.77;3.90;;;11.10;98.30;;;;;;21090567;28;20213;-65
2023/10/06 03:59:16;;;;;;;9.87;4.63;;;11.00;98.20;;;;;;21089332;28;20291;-63
2023/10/06 04:09:27;;;;;;;10.17;4.40;;;10.90;98.30;;;;;;21087669;28;20204;-63
2023/10/06 04:19:30;;;;;;;11.50;5.33;;;10.90;98.30;;;;;;21087865;28;20230;-63
2023/10/06 04:29:35;;;;;;;8.17;4.57;;;10.70;98.10;;;;;;21087413;28;20787;-65
2023/10/06 04:39:39;;;;;;;13.17;5.30;;;10.70;98.10;;;;;;21087080;28;20237;-63
2023/10/06 04:49:40;;;;;;;23.63;6.53;;;10.60;97.90;;;;;;21086104;28;20761;-63
2023/10/06 04:59:42;;;;;;;18.83;6.70;;;10.50;98.20;;;;;;21084780;28;20636;-65
2023/10/06 05:09:44;;;;;;;21.80;7.80;;;10.60;98.40;;;;;;21085281;28;20223;-65
2023/10/06 05:19:45;;;;;;;17.80;6.90;;;10.60;98.50;;;;;;21083314;28;20244;-65
2023/10/06 05:29:50;;;;;;;23.90;7.33;;;10.70;98.70;;;;;;21080792;28;20267;-66
2023/10/06 05:39:52;;;;;;;48.00;7.73;;;10.70;98.90;;;;;;21082125;28;20592;-66
2023/10/06 05:49:53;;;;;;;14.70;7.20;;;10.70;98.80;;;;;;21080317;28;20232;-67
2023/10/06 05:59:55;;;;;;;22.30;9.03;;;10.60;99.10;;;;;;21079893;28;20704;-67
2023/10/06 06:09:58;;;;;;;27.33;9.77;;;10.60;99.10;;;;;;21079374;28;20206;-67
2023/10/06 06:20:02;;;;;;;25.80;10.33;;;10.70;99.40;;;;;;21079011;28;20235;-68
2023/10/06 06:30:18;;;;;;;21.77;8.97;;;10.80;99.40;;;;;;21077264;28;20652;-68
2023/10/06 06:40:21;;;;;;;19.40;9.23;;;11.00;99.60;;;;;;21077978;28;20233;-68
2023/10/06 06:59:02;;;;;;;17.87;8.60;;;11.20;99.30;;;;;;20983950;28;20563;-70
2023/10/06 07:09:12;;;;;;;21.63;8.63;;;11.30;99.40;;;;;;20983103;28;20203;-68
2023/10/06 07:19:14;;;;;;;29.97;9.00;;;11.20;99.50;;;;;;20951357;28;20318;-68
2023/10/06 07:29:16;;;;;;;18.60;8.53;;;11.30;99.60;;;;;;20962575;28;20680;-65
2023/10/06 07:39:20;;;;;;;20.77;9.77;;;11.30;99.70;;;;;;20903655;28;20619;-66
2023/10/06 07:49:22;;;;;;;16.20;9.83;;;11.40;99.90;;;;;;20915664;28;20235;-64
2023/10/06 07:59:25;;;;;;;18.87;9.93;;;11.60;99.90;;;;;;20978187;28;20214;-65
2023/10/06 08:09:27;;;;;;;19.13;10.73;;;11.90;99.90;;;;;;20928361;28;20250;-66
2023/10/06 08:19:29;;;;;;;27.13;12.07;;;11.90;99.60;;;;;;20922285;28;20226;-64
2023/10/06 08:29:33;;;;;;;20.77;11.60;;;12.20;99.80;;;;;;20852417;28;20241;-66
2023/10/06 08:39:38;;;;;;;18.23;11.53;;;12.40;99.70;;;;;;20838623;28;20337;-65
2023/10/06 08:49:40;;;;;;;24.43;11.10;;;12.60;99.90;;;;;;20836743;28;20246;-67
2023/10/06 08:59:43;;;;;;;21.03;12.40;;;12.90;99.80;;;;;;20844755;28;20214;-67
2023/10/06 09:09:47;;;;;;;19.43;10.77;;;13.20;99.80;;;;;;20877806;28;20270;-66
2023/10/06 09:19:49;;;;;;;19.30;9.83;;;13.60;99.80;;;;;;20874009;28;20263;-69
2023/10/06 09:30:01;;;;;;;17.83;8.97;;;14.10;99.60;;;;;;20904953;28;20235;-69
2023/10/06 09:40:20;;;;;;;19.97;9.50;;;14.50;99.40;;;;;;20915875;28;20310;-69
2023/10/06 09:50:23;;;;;;;20.10;9.47;;;14.80;99.10;;;;;;20914550;28;20594;-67
2023/10/06 10:00:29;;;;;;;17.17;8.40;;;15.20;98.80;;;;;;20892897;28;20212;-69
2023/10/06 10:10:34;;;;;;;16.47;9.40;;;15.60;98.40;;;;;;20891755;28;20237;-68
2023/10/06 10:20:36;;;;;;;22.40;8.67;;;15.80;98.10;;;;;;20911504;28;20241;-68
2023/10/06 10:30:56;;;;;;;15.80;8.20;;;16.10;98.00;;;;;;20848659;28;20287;-65
2023/10/06 10:40:59;;;;;;;13.53;6.07;;;16.40;97.80;;;;;;20879779;28;20270;-69
2023/10/06 10:51:10;;;;;;;12.43;5.70;;;16.60;97.50;;;;;;20828938;28;20236;-68
2023/10/06 11:01:43;;;;;;;15.53;6.50;;;16.80;97.20;;;;;;20828166;28;20204;-68
2023/10/06 11:11:45;;;;;;;17.47;5.63;;;16.90;96.50;;;;;;20842281;28;20235;-68
2023/10/06 11:21:47;;;;;;;11.87;4.63;;;17.10;95.90;;;;;;20831013;28;20627;-66
2023/10/06 11:31:50;;;;;;;10.57;4.03;;;17.30;95.40;;;;;;20908962;28;20232;-74
2023/10/06 11:41:55;;;;;;;9.00;3.87;;;17.90;94.10;;;;;;20918493;28;20290;-74
2023/10/06 11:51:57;;;;;;;5.87;3.00;;;;;;;;;;20924721;28;20611;-70
2023/10/06 12:02:09;;;;;;;8.97;3.63;;;18.70;88.70;;;;;;20923020;28;20665;-70
2023/10/06 12:12:11;;;;;;;7.23;3.60;;;19.00;84.70;;;;;;20922238;28;20580;-68
2023/10/06 12:22:13;;;;;;;8.47;4.40;;;19.20;79.90;;;;;;20913256;28;20296;-72
2023/10/06 12:32:17;;;;;;;8.07;3.60;;;19.30;76.40;;;;;;20841322;28;20683;-71
2023/10/06 12:42:20;;;;;;;8.60;3.80;;;19.50;74.40;;;;;;20875225;28;20235;-71
2023/10/06 12:52:21;;;;;;;14.43;3.90;;;19.60;72.10;;;;;;20888590;28;20242;-71
2023/10/06 13:02:24;;;;;;;7.47;4.13;;;19.70;70.90;;;;;;20835633;28;20204;-72
2023/10/06 13:12:28;;;;;;;5.93;3.53;;;19.90;70.20;;;;;;20889846;28;20224;-70
2023/10/06 13:22:30;;;;;;;8.40;3.83;;;20.00;68.80;;;;;;20916771;28;20618;-83
2023/10/06 13:32:36;;;;;;;6.83;4.17;;;20.00;68.50;;;;;;20916739;28;20238;-75
2023/10/06 13:42:48;;;;;;;10.20;4.57;;;20.20;67.80;;;;;;20911223;28;20210;-72
2023/10/06 13:52:50;;;;;;;12.40;5.07;;;20.40;68.10;;;;;;20913671;28;20314;-71
2023/10/06 14:02:52;;;;;;;10.13;4.70;;;20.80;66.90;;;;;;20914188;28;20678;-72
2023/10/06 14:13:02;;;;;;;11.13;5.53;;;21.50;63.90;;;;;;20913512;28;20289;-68
2023/10/06 14:23:04;;;;;;;13.20;4.77;;;;;;;;;;20912515;28;20208;-74
2023/10/06 14:53:36;;;;;;;8.13;4.80;;;23.70;52.10;;;;;;20911729;28;20680;-68
2023/10/06 15:03:40;;;;;;;11.37;6.10;;;22.80;52.60;;;;;;20911423;28;20208;-69
2023/10/06 15:13:46;;;;;;;12.10;5.27;;;22.90;51.80;;;;;;20915265;28;20322;-67
2023/10/06 15:23:50;;;;;;;10.07;5.07;;;21.90;53.00;;;;;;20927354;28;20254;-69
2023/10/06 15:33:55;;;;;;;8.87;4.57;;;21.30;54.20;;;;;;20926272;28;20699;-69
2023/10/06 15:43:57;;;;;;;8.77;5.03;;;21.00;55.00;;;;;;20925361;28;20642;-68
2023/10/06 15:54:05;;;;;;;9.83;4.87;;;20.70;55.40;;;;;;20924598;28;20279;-68
2023/10/06 16:04:07;;;;;;;9.07;5.10;;;20.40;56.00;;;;;;20924210;28;20573;-68
2023/10/06 16:14:09;;;;;;;11.97;5.50;;;20.10;56.90;;;;;;20922185;28;20246;-67
2023/10/06 16:24:13;;;;;;;10.23;6.10;;;19.80;57.80;;;;;;20922342;28;20631;-67
2023/10/06 16:34:15;;;;;;;13.10;6.60;;;19.40;59.00;;;;;;20921603;28;20235;-69
2023/10/06 16:44:19;;;;;;;14.37;6.73;;;19.20;60.30;;;;;;20920712;28;20218;-67
2023/10/06 16:54:22;;;;;;;13.07;7.33;;;19.00;60.30;;;;;;20919960;28;20294;-66
2023/10/06 17:04:24;;;;;;;10.97;6.60;;;18.90;59.80;;;;;;20918508;28;20223;-66
2023/10/06 17:14:26;;;;;;;15.53;7.60;;;18.70;59.20;;;;;;20917792;28;20238;-67
2023/10/06 17:24:30;;;;;;;13.13;6.97;;;18.50;59.00;;;;;;20905593;28;20218;-60
2023/10/06 17:34:32;;;;;;;15.67;7.10;;;18.40;59.30;;;;;;20865471;28;20248;-65
2023/10/06 17:44:34;;;;;;;15.70;8.30;;;18.30;59.70;;;;;;20894442;28;20232;-66
2023/10/06 17:54:36;;;;;;;12.53;6.67;;;18.10;60.00;;;;;;20875241;28;20251;-66
2023/10/06 18:04:40;;;;;;;14.97;7.60;;;18.00;60.70;;;;;;20832454;28;20265;-69
2023/10/06 18:14:42;;;;;;;14.80;7.03;;;17.80;61.70;;;;;;20894497;28;20230;-68
2023/10/06 18:24:43;;;;;;;12.53;7.43;;;17.70;62.20;;;;;;20900435;28;20734;-68
2023/10/06 18:34:45;;;;;;;18.50;8.03;;;17.40;63.30;;;;;;20866944;28;20248;-67
2023/10/06 18:44:50;;;;;;;16.70;8.23;;;17.20;64.60;;;;;;20860725;28;20201;-67
2023/10/06 18:54:52;;;;;;;17.43;7.50;;;16.90;65.90;;;;;;20911206;28;20285;-65
2023/10/06 19:04:54;;;;;;;19.60;8.30;;;16.80;67.10;;;;;;20846737;28;20210;-66
2023/10/06 19:14:56;;;;;;;36.37;16.60;;;16.60;68.00;;;;;;20827791;28;20238;-66
2023/10/06 19:24:58;;;;;;;54.97;23.90;;;16.50;69.00;;;;;;20827436;28;20295;-68
2023/10/06 19:35:00;;;;;;;15.43;8.13;;;16.40;70.10;;;;;;20826704;28;20332;-68
2023/10/06 19:45:04;;;;;;;15.57;8.60;;;16.10;71.60;;;;;;20860416;28;20240;-67
2023/10/06 19:55:07;;;;;;;15.97;8.23;;;15.90;73.20;;;;;;20908840;28;20279;-67
2023/10/06 20:05:11;;;;;;;27.53;13.40;;;15.70;74.60;;;;;;20921109;28;20208;-67
2023/10/06 20:15:13;;;;;;;19.53;10.43;;;15.50;75.30;;;;;;20923473;28;20797;-66
2023/10/06 20:25:15;;;;;;;30.90;14.03;;;15.30;77.10;;;;;;20922095;28;20207;-67
2023/10/06 20:35:17;;;;;;;28.93;12.90;;;15.30;78.60;;;;;;20919683;28;20699;-67
2023/10/06 20:45:19;;;;;;;73.60;23.47;;;15.20;79.90;;;;;;20883171;28;20294;-65
2023/10/06 20:55:21;;;;;;;50.90;15.97;;;15.10;81.10;;;;;;20833497;28;20248;-67
2023/10/06 21:05:23;;;;;;;36.03;13.50;;;14.90;82.40;;;;;;20835192;28;20579;-67
2023/10/06 21:15:25;;;;;;;30.73;12.57;;;14.90;83.90;;;;;;20833885;28;20232;-66
2023/10/06 21:25:27;;;;;;;30.87;12.07;;;14.80;84.80;;;;;;20833091;28;20208;-66
2023/10/06 21:35:30;;;;;;;22.83;10.50;;;14.70;86.00;;;;;;20832752;28;20231;-65
2023/10/06 21:45:36;;;;;;;18.80;10.03;;;14.60;87.30;;;;;;20831728;28;20718;-67
2023/10/06 21:55:38;;;;;;;19.37;10.00;;;14.50;88.30;;;;;;20830697;28;20283;-66
2023/10/06 22:05:40;;;;;;;20.47;11.30;;;14.50;89.10;;;;;;20830719;28;20243;-66
2023/10/06 22:15:42;;;;;;;19.23;8.93;;;14.40;90.00;;;;;;20829161;28;20244;-66
2023/10/06 22:25:44;;;;;;;14.33;8.73;;;14.40;90.30;;;;;;20828136;28;20231;-67
2023/10/06 22:35:46;;;;;;;12.83;7.43;;;14.20;90.60;;;;;;20828965;28;20703;-64
2023/10/06 22:45:49;;;;;;;15.57;7.53;;;14.20;90.90;;;;;;20830242;28;20215;-64
2023/10/06 22:55:52;;;;;;;13.83;6.93;;;14.10;91.20;;;;;;20829301;28;20303;-64
2023/10/06 23:05:54;;;;;;;14.50;6.67;;;14.00;91.40;;;;;;20829452;28;20268;-65
2023/10/06 23:15:57;;;;;;;13.27;6.80;;;14.00;91.80;;;;;;20828726;28;20283;-65
2023/10/06 23:25:59;;;;;;;16.47;7.13;;;13.90;92.00;;;;;;20828406;28;20204;-65
2023/10/06 23:36:01;;;;;;;14.63;6.83;;;13.80;92.30;;;;;;20834843;28;20243;-65
2023/10/06 23:46:05;;;;;;;13.67;7.30;;;13.70;92.60;;;;;;20843640;28;20730;-65
2023/10/06 23:56:23;;;;;;;13.47;7.63;;;13.60;92.90;;;;;;20842334;28;20240;-66
